Time;durP1;ratioP1;P1;durP2;ratioP2;P2;SDS_P1;SDS_P2;PMS_P1;PMS_P2;Temp;Humidity;BMP_temperature;BMP_pressure;BME280_temperature;BME280_humidity;BME280_pressure;Samples;Min_cycle;Max_cycle;Signal;HPM_P1;HPM_P2
2022/04/03 00:01:26;;;;;;;14.18;5.50;;;;;;;0.78;73.51;102358.81;5077692;28;20028;-76
2022/04/03 00:03:51;;;;;;;14.15;5.75;;;;;;;0.85;73.66;102364.38;5077678;28;20437;-75
2022/04/03 00:06:17;;;;;;;12.55;5.03;;;;;;;0.89;73.26;102363.28;5095846;28;20028;-75
2022/04/03 00:08:42;;;;;;;11.95;5.25;;;;;;;0.86;72.74;102359.22;5095899;28;20478;-77
2022/04/03 00:11:09;;;;;;;12.30;5.07;;;;;;;0.76;73.64;102362.34;5095749;28;20383;-77
2022/04/03 00:13:34;;;;;;;10.40;4.78;;;;;;;0.75;74.36;102361.53;5095953;28;20467;-76
2022/04/03 00:15:59;;;;;;;10.10;4.20;;;;;;;0.58;73.63;102362.44;5095663;28;20077;-76
2022/04/03 00:18:25;;;;;;;10.38;5.00;;;;;;;0.64;73.52;102358.75;5095631;28;20032;-76
2022/04/03 00:20:51;;;;;;;10.55;4.18;;;;;;;0.58;73.87;102354.00;5095612;28;20435;-77
2022/04/03 00:23:16;;;;;;;9.70;4.03;;;;;;;0.59;74.30;102359.00;5095570;28;20038;-78
2022/04/03 00:25:41;;;;;;;7.82;4.05;;;;;;;0.53;74.56;102366.13;5077311;28;20028;-75
2022/04/03 00:28:07;;;;;;;9.60;4.20;;;;;;;0.57;75.01;102362.50;5095566;28;20066;-75
2022/04/03 00:30:33;;;;;;;9.25;4.28;;;;;;;0.57;75.40;102355.69;5077121;28;20031;-76
2022/04/03 00:32:59;;;;;;;7.70;4.00;;;;;;;0.53;75.11;102350.88;5077203;28;20020;-76
2022/04/03 00:35:24;;;;;;;9.10;4.57;;;;;;;0.43;75.38;102351.38;5095295;28;20035;-75
2022/04/03 00:37:50;;;;;;;11.38;4.75;;;;;;;0.44;75.58;102355.56;5077127;28;20020;-75
2022/04/03 00:40:16;;;;;;;11.40;4.93;;;;;;;0.48;75.75;102352.84;5095237;28;20020;-75
2022/04/03 00:42:41;;;;;;;12.35;5.45;;;;;;;0.49;75.58;102347.69;5095306;28;20024;-75
2022/04/03 00:45:07;;;;;;;10.15;5.82;;;;;;;0.39;76.15;102351.59;5095171;28;20030;-75
2022/04/03 00:47:33;;;;;;;12.38;6.40;;;;;;;0.41;75.78;102358.25;5076839;28;20034;-75
2022/04/03 00:49:59;;;;;;;14.10;6.05;;;;;;;0.43;75.45;102358.16;5095106;28;20102;-76
2022/04/03 00:52:25;;;;;;;13.77;6.50;;;;;;;0.43;76.18;102351.38;5075980;28;20074;-76
2022/04/03 00:54:51;;;;;;;11.45;5.97;;;;;;;0.43;76.49;102355.63;5094943;28;20510;-76
2022/04/03 00:57:20;;;;;;;12.20;5.63;;;;;;;0.38;76.33;102360.16;5094948;28;20031;-77
2022/04/03 00:59:46;;;;;;;9.88;4.63;;;;;;;0.28;76.43;102359.00;5094812;28;20023;-75
2022/04/03 01:02:11;;;;;;;8.60;4.30;;;;;;;0.12;76.49;102362.34;5076474;28;20024;-75
2022/04/03 01:04:37;;;;;;;9.82;4.35;;;;;;;0.16;76.49;102355.38;5076424;28;20115;-76
2022/04/03 01:07:03;;;;;;;12.13;4.78;;;;;;;0.11;76.19;102357.31;5076896;28;20067;-74
2022/04/03 01:09:28;;;;;;;9.00;4.30;;;;;;;0.18;75.91;102356.94;5094705;28;20020;-77
2022/04/03 01:11:54;;;;;;;8.50;4.03;;;;;;;0.32;76.17;102358.75;5094597;28;20110;-77
2022/04/03 01:14:33;;;;;;;6.85;3.70;;;;;;;0.46;76.28;102355.44;5076376;28;20023;-75
2022/04/03 01:16:58;;;;;;;9.52;4.50;;;;;;;0.41;75.20;102332.00;5094478;28;20024;-75
2022/04/03 01:19:24;;;;;;;7.65;4.10;;;;;;;0.58;75.40;102343.81;5094409;28;20024;-75
2022/04/03 01:21:50;;;;;;;6.35;3.58;;;;;;;0.51;74.97;102347.59;5076103;28;20031;-74
2022/04/03 01:24:17;;;;;;;9.55;4.13;;;;;;;0.66;75.18;102349.28;5076280;28;20020;-75
2022/04/03 01:26:43;;;;;;;8.38;4.13;;;;;;;0.75;74.91;102346.25;5076301;28;20031;-76
2022/04/03 01:29:09;;;;;;;10.90;4.15;;;;;;;0.72;74.40;102346.44;5094181;28;20024;-75
2022/04/03 01:31:34;;;;;;;9.20;4.10;;;;;;;0.85;74.82;102349.09;5094242;28;20107;-76
2022/04/03 01:33:59;;;;;;;13.98;3.80;;;;;;;0.93;73.22;102348.69;5075822;28;20100;-77
2022/04/03 01:36:25;;;;;;;7.55;3.45;;;;;;;0.93;74.38;102341.06;5093486;28;20073;-74
2022/04/03 01:38:50;;;;;;;10.23;4.00;;;;;;;0.85;75.84;102344.03;5075144;28;20026;-74
2022/04/03 01:41:15;;;;;;;9.70;3.90;;;;;;;0.95;75.31;102341.78;5093276;28;20050;-75
2022/04/03 01:43:40;;;;;;;6.90;3.42;;;;;;;0.97;76.09;102332.31;5075259;28;20364;-74
2022/04/03 01:46:06;;;;;;;11.77;3.75;;;;;;;1.03;75.72;102349.81;5075627;28;20024;-76
2022/04/03 01:48:32;;;;;;;10.55;4.10;;;;;;;1.11;75.76;102335.72;5093977;28;20089;-74
2022/04/03 01:50:57;;;;;;;7.57;3.80;;;;;;;1.06;76.25;102342.81;5075621;28;20044;-75
2022/04/03 01:53:24;;;;;;;7.38;3.78;;;;;;;1.04;76.17;102336.19;5075585;28;20023;-75
2022/04/03 01:56:04;;;;;;;9.15;3.95;;;;;;;1.20;75.94;102349.66;5093816;28;20035;-75
2022/04/03 01:58:30;;;;;;;9.25;3.60;;;;;;;1.31;76.51;102349.06;5093953;28;20111;-75
2022/04/03 02:00:56;;;;;;;8.38;3.88;;;;;;;1.41;77.66;102351.88;5093684;28;20070;-76
2022/04/03 02:03:21;;;;;;;10.20;3.75;;;;;;;1.26;78.32;102331.47;5075240;28;20043;-76
2022/04/03 02:05:47;;;;;;;6.00;3.70;;;;;;;1.44;79.55;102347.47;5092748;28;20046;-76
2022/04/03 02:08:12;;;;;;;6.50;3.58;;;;;;;1.40;78.99;102342.63;5075411;28;20467;-76
2022/04/03 02:10:38;;;;;;;11.57;4.00;;;;;;;1.50;80.19;102336.09;5093450;28;20040;-74
2022/04/03 02:13:04;;;;;;;6.70;3.83;;;;;;;1.50;80.97;102331.81;5075391;28;20383;-76
2022/04/03 02:15:30;;;;;;;8.70;4.28;;;;;;;1.47;81.72;102326.91;5075315;28;20027;-76
2022/04/03 02:17:55;;;;;;;12.80;5.88;;;;;;;1.45;82.62;102331.25;5093382;28;20019;-76
2022/04/03 02:20:20;;;;;;;11.00;5.88;;;;;;;1.52;83.88;102331.72;5093380;28;20103;-78
2022/04/03 02:22:46;;;;;;;15.40;6.05;;;;;;;1.42;82.64;102328.88;5093519;28;20032;-76
2022/04/03 02:25:11;;;;;;;12.82;6.20;;;;;;;1.53;83.58;102343.56;5093329;28;20382;-75
2022/04/03 02:27:37;;;;;;;10.80;6.00;;;;;;;1.46;83.56;102332.88;5093536;28;20095;-75
2022/04/03 02:30:05;;;;;;;10.10;5.70;;;;;;;1.43;84.65;102330.50;5075130;28;20032;-77
2022/04/03 02:32:31;;;;;;;11.77;6.28;;;;;;;1.40;85.00;102334.97;5093357;28;20023;-74
2022/04/03 02:34:56;;;;;;;9.38;5.25;;;;;;;1.31;84.78;102329.50;5093271;28;20024;-75
2022/04/03 02:37:21;;;;;;;10.10;5.28;;;;;;;1.23;84.63;102339.31;5075124;28;20026;-76
2022/04/03 02:39:47;;;;;;;8.40;4.80;;;;;;;1.07;84.59;102334.28;5093073;28;20532;-76
2022/04/03 02:42:12;;;;;;;10.77;4.97;;;;;;;1.09;84.86;102335.03;5093075;28;20020;-76
2022/04/03 02:44:37;;;;;;;10.63;5.00;;;;;;;1.09;85.39;102334.19;5074966;28;20417;-76
2022/04/03 02:47:03;;;;;;;9.88;4.63;;;;;;;1.08;85.67;102330.81;5074931;28;20024;-75
2022/04/03 02:49:29;;;;;;;9.48;4.60;;;;;;;0.88;86.13;102295.47;5093013;28;20047;-75
2022/04/03 02:51:54;;;;;;;11.00;4.50;;;;;;;1.09;86.00;102331.63;5074658;28;20056;-76
2022/04/03 02:54:19;;;;;;;10.63;4.28;;;;;;;1.04;85.48;102331.09;5093056;28;20493;-76
2022/04/03 02:56:44;;;;;;;8.90;4.43;;;;;;;1.06;85.79;102319.06;5074810;28;20024;-76
2022/04/03 02:59:10;;;;;;;9.43;4.47;;;;;;;1.15;85.69;102333.81;5092900;28;20053;-75
2022/04/03 03:01:35;;;;;;;9.27;4.30;;;;;;;1.18;85.23;102325.19;5074874;28;20031;-76
2022/04/03 03:04:00;;;;;;;10.77;4.65;;;;;;;1.28;86.26;102333.97;5074725;28;20418;-76
2022/04/03 03:06:25;;;;;;;8.23;4.60;;;;;;;1.23;86.06;102338.50;5092883;28;20473;-76
2022/04/03 03:08:51;;;;;;;9.45;4.10;;;;;;;1.23;86.72;102328.31;5092877;28;20032;-75
2022/04/03 03:11:16;;;;;;;10.48;4.30;;;;;;;1.22;87.13;102331.78;5092938;28;20020;-76
2022/04/03 03:13:41;;;;;;;9.27;4.32;;;;;;;1.27;86.98;102333.13;5092767;28;20097;-75
2022/04/03 03:16:07;;;;;;;7.85;3.88;;;;;;;1.30;87.07;102332.16;5094394;28;20024;-75
2022/04/03 03:18:32;;;;;;;7.38;3.88;;;;;;;1.29;87.11;102338.13;5096760;28;20027;-75
2022/04/03 03:20:58;;;;;;;8.52;3.92;;;;;;;1.27;87.04;102330.59;5096778;28;20364;-75
2022/04/03 03:23:24;;;;;;;8.32;3.50;;;;;;;1.20;87.02;102331.03;5078513;28;20020;-75
2022/04/03 03:25:49;;;;;;;7.18;3.90;;;;;;;1.29;86.71;102335.59;5096702;28;20103;-75
2022/04/03 03:28:15;;;;;;;8.40;3.72;;;;;;;1.43;86.38;102327.16;5078477;28;20067;-76
2022/04/03 03:30:40;;;;;;;8.32;3.60;;;;;;;1.50;86.50;102328.44;5096581;28;20028;-74
2022/04/03 03:33:06;;;;;;;7.95;3.72;;;;;;;1.49;86.24;102329.34;5078408;28;20020;-76
2022/04/03 03:35:33;;;;;;;7.95;3.78;;;;;;;1.43;86.93;102325.41;5078265;28;20028;-75
2022/04/03 03:37:58;;;;;;;8.23;3.30;;;;;;;1.41;86.95;102322.16;5096460;28;20153;-75
2022/04/03 03:40:24;;;;;;;5.00;3.15;;;;;;;1.41;87.64;102324.72;5078210;28;20409;-76
2022/04/03 03:42:49;;;;;;;6.15;3.00;;;;;;;1.32;87.06;102326.06;5096259;28;20113;-76
2022/04/03 03:45:15;;;;;;;7.35;3.60;;;;;;;1.27;87.63;102325.50;5078018;28;20119;-75
2022/04/03 03:47:45;;;;;;;7.03;3.28;;;;;;;1.28;87.75;102323.78;5096255;28;20089;-75
2022/04/03 03:50:10;;;;;;;7.50;3.20;;;;;;;1.25;87.37;102323.94;5077922;28;20039;-75
2022/04/03 03:52:35;;;;;;;5.65;3.47;;;;;;;1.20;88.08;102321.66;5077866;28;20043;-75
2022/04/03 03:55:01;;;;;;;5.82;3.10;;;;;;;1.25;87.42;102324.75;5096418;28;20059;-75
2022/04/03 03:57:26;;;;;;;4.75;3.08;;;;;;;1.25;87.52;102327.31;5095986;28;20031;-76
2022/04/03 03:59:52;;;;;;;5.85;3.35;;;;;;;1.21;87.31;102323.31;5096037;28;20028;-75
2022/04/03 04:02:18;;;;;;;6.88;3.53;;;;;;;1.30;86.72;102322.78;5077719;28;20024;-76
2022/04/03 04:04:44;;;;;;;4.90;3.17;;;;;;;1.27;86.40;102322.13;5095938;28;20052;-76
2022/04/03 04:07:09;;;;;;;5.93;2.90;;;;;;;1.13;85.29;102330.56;5096007;28;20447;-75
2022/04/03 04:09:34;;;;;;;5.78;3.28;;;;;;;1.02;85.51;102326.06;5095859;28;20475;-76
2022/04/03 04:11:59;;;;;;;6.65;3.53;;;;;;;1.01;85.74;102326.19;5095788;28;20023;-76
2022/04/03 04:14:25;;;;;;;5.53;3.53;;;;;;;1.05;85.61;102335.25;5095898;28;20024;-75
2022/04/03 04:16:50;;;;;;;7.57;3.40;;;;;;;0.88;85.61;102329.38;5077891;28;20036;-76
2022/04/03 04:19:15;;;;;;;6.18;3.80;;;;;;;0.95;86.10;102336.69;5077534;28;20032;-75
2022/04/03 04:21:41;;;;;;;7.20;3.60;;;;;;;0.85;85.64;102328.75;5077530;28;20486;-75
2022/04/03 04:24:06;;;;;;;6.65;4.00;;;;;;;0.82;86.25;102324.66;5095483;28;20035;-76
2022/04/03 04:26:32;;;;;;;8.70;3.67;;;;;;;0.86;86.30;102333.75;5095438;28;20106;-76
2022/04/03 04:28:57;;;;;;;4.60;3.17;;;;;;;0.76;86.41;102332.63;5094526;28;20020;-76
2022/04/03 04:31:22;;;;;;;9.77;3.58;;;;;;;0.70;87.08;102330.41;5077251;28;20425;-77
2022/04/03 04:33:47;;;;;;;6.38;3.80;;;;;;;0.72;86.36;102336.25;5077219;28;20012;-76
2022/04/03 04:36:13;;;;;;;7.10;3.78;;;;;;;0.73;87.07;102330.25;5095414;28;20031;-75
2022/04/03 04:38:38;;;;;;;7.15;3.92;;;;;;;0.72;87.34;102341.34;5095233;28;20067;-75
2022/04/03 04:41:04;;;;;;;5.75;3.53;;;;;;;0.70;87.74;102329.59;5095325;28;20024;-76
2022/04/03 04:43:30;;;;;;;7.18;4.03;;;;;;;0.63;87.15;102337.59;5076990;28;20016;-75
2022/04/03 04:45:55;;;;;;;6.22;3.85;;;;;;;0.65;87.51;102332.38;5095136;28;20494;-75
2022/04/03 04:48:20;;;;;;;5.43;3.90;;;;;;;0.56;87.62;102313.34;5077070;28;20028;-75
2022/04/03 04:50:46;;;;;;;8.07;4.20;;;;;;;0.76;88.04;102340.25;5095003;28;20047;-76
2022/04/03 04:53:11;;;;;;;5.57;3.63;;;;;;;0.80;87.62;102339.16;5095022;28;20024;-75
2022/04/03 04:55:36;;;;;;;6.70;3.85;;;;;;;0.73;87.88;102327.69;5076809;28;20028;-77
2022/04/03 04:58:02;;;;;;;7.40;4.43;;;;;;;0.81;88.39;102340.00;5094783;28;20114;-76
2022/04/03 05:00:30;;;;;;;7.20;4.40;;;;;;;0.81;88.00;102330.66;5094857;28;20424;-76
2022/04/03 05:02:56;;;;;;;7.47;4.60;;;;;;;0.90;87.94;102334.41;5076543;28;20042;-76
2022/04/03 05:05:22;;;;;;;9.15;5.78;;;;;;;0.87;87.60;102332.84;5094655;28;20031;-76
2022/04/03 05:07:51;;;;;;;8.05;5.55;;;;;;;0.78;87.32;102330.81;5094713;28;20047;-76
2022/04/03 05:10:17;;;;;;;12.27;6.68;;;;;;;0.73;87.81;102335.34;5076524;28;20035;-75
2022/04/03 05:12:43;;;;;;;15.70;6.80;;;;;;;0.78;88.45;102332.56;5094738;28;20479;-77
2022/04/03 05:15:11;;;;;;;11.52;7.25;;;;;;;0.88;88.25;102331.13;5094574;28;20428;-77
2022/04/03 05:17:38;;;;;;;12.15;7.82;;;;;;;0.89;87.78;102335.28;5077069;28;20024;-77
2022/04/03 05:20:03;;;;;;;15.02;7.75;;;;;;;0.83;87.45;102338.19;5076373;28;20020;-76
2022/04/03 05:22:29;;;;;;;10.10;7.20;;;;;;;0.87;87.33;102326.94;5094399;28;20035;-77
2022/04/03 05:24:55;;;;;;;11.55;7.60;;;;;;;0.83;87.79;102331.34;5094662;28;20035;-76
2022/04/03 05:27:20;;;;;;;15.15;8.25;;;;;;;0.90;87.92;102329.31;5076229;28;20032;-76
2022/04/03 05:29:46;;;;;;;14.95;8.88;;;;;;;0.96;88.08;102330.69;5076174;28;20129;-76
2022/04/03 05:32:12;;;;;;;15.68;9.10;;;;;;;0.95;87.59;102322.25;5076182;28;20052;-76
2022/04/03 05:34:37;;;;;;;16.98;9.05;;;;;;;1.03;87.48;102326.88;5076161;28;20062;-76
2022/04/03 05:37:03;;;;;;;14.88;9.55;;;;;;;1.07;87.16;102325.81;5094122;28;20613;-76
2022/04/03 05:39:28;;;;;;;17.27;9.75;;;;;;;1.17;86.93;102326.09;5075703;28;20024;-76
2022/04/03 05:41:55;;;;;;;13.70;9.90;;;;;;;1.21;87.32;102330.94;5075844;28;20059;-77
2022/04/03 05:44:21;;;;;;;15.75;10.18;;;;;;;1.16;87.53;102332.94;5093884;28;20016;-76
2022/04/03 05:46:47;;;;;;;15.52;9.82;;;;;;;1.11;87.18;102334.91;5093924;28;20030;-76
2022/04/03 05:49:12;;;;;;;16.55;10.38;;;;;;;1.14;87.74;102337.28;5075861;28;20102;-76
2022/04/03 05:51:37;;;;;;;16.77;10.55;;;;;;;1.00;87.66;102335.50;5093889;28;20043;-76
2022/04/03 05:54:03;;;;;;;16.50;10.00;;;;;;;1.16;87.63;102335.47;5094061;28;20020;-75
2022/04/03 05:56:31;;;;;;;18.60;10.48;;;;;;;1.26;87.41;102333.22;5075787;28;20534;-76
2022/04/03 05:58:56;;;;;;;15.57;10.32;;;;;;;1.25;86.60;102340.03;5094084;28;20024;-74
2022/04/03 06:01:21;;;;;;;15.48;10.20;;;;;;;1.33;87.03;102337.88;5094020;28;20031;-76
2022/04/03 06:03:47;;;;;;;14.32;10.57;;;;;;;1.44;87.22;102323.69;5094114;28;20046;-77
2022/04/03 06:06:12;;;;;;;14.82;10.15;;;;;;;1.54;86.67;102340.09;5075970;28;20114;-76
2022/04/03 06:08:38;;;;;;;14.35;9.90;;;;;;;1.56;86.26;102340.81;5075717;28;20114;-76
2022/04/03 06:11:04;;;;;;;18.25;10.48;;;;;;;1.54;86.27;102343.44;5075377;28;20453;-76
2022/04/03 06:13:30;;;;;;;13.45;9.73;;;;;;;1.73;86.35;102340.66;5075437;28;20016;-75
2022/04/03 06:15:55;;;;;;;15.05;9.57;;;;;;;1.72;85.61;102351.75;5093584;28;20039;-76
2022/04/03 06:18:20;;;;;;;15.15;9.18;;;;;;;1.75;85.38;102350.75;5075555;28;20047;-76
2022/04/03 06:20:47;;;;;;;16.95;8.80;;;;;;;1.90;85.37;102351.56;5093476;28;20027;-74
2022/04/03 06:23:15;;;;;;;11.07;7.95;;;;;;;2.06;84.35;102354.00;5075196;28;20028;-76
2022/04/03 06:25:40;;;;;;;12.38;8.50;;;;;;;2.39;84.09;102358.81;5093298;28;20372;-76
2022/04/03 06:28:06;;;;;;;12.82;7.97;;;;;;;2.70;83.55;102355.13;5075201;28;20058;-75
2022/04/03 06:30:31;;;;;;;12.27;7.88;;;;;;;2.89;82.13;102357.34;5093389;28;20027;-76
2022/04/03 06:32:57;;;;;;;13.93;7.65;;;;;;;2.94;82.42;102360.44;5075202;28;20057;-75
2022/04/03 06:35:22;;;;;;;10.52;6.50;;;;;;;2.89;82.89;102354.81;5093246;28;20102;-76
2022/04/03 06:37:48;;;;;;;12.68;6.88;;;;;;;2.78;82.53;102347.00;5093295;28;20106;-77
2022/04/03 06:40:13;;;;;;;9.85;6.90;;;;;;;2.81;82.77;102355.28;5075007;28;20104;-76
2022/04/03 06:42:40;;;;;;;10.82;6.45;;;;;;;2.76;82.41;102328.41;5095274;28;20024;-66
2022/04/03 06:45:06;;;;;;;10.35;7.15;;;;;;;2.96;82.73;102350.09;5094071;28;20028;-66
2022/04/03 06:47:35;;;;;;;10.52;5.88;;;;;;;2.99;80.75;102327.72;5094201;28;20024;-66
2022/04/03 06:50:02;;;;;;;11.52;6.38;;;;;;;3.11;80.61;102354.25;5076457;28;20087;-66
2022/04/03 06:52:28;;;;;;;8.93;6.15;;;;;;;3.19;80.76;102356.28;5082072;28;20079;-70
2022/04/03 06:54:53;;;;;;;9.13;5.95;;;;;;;3.19;80.16;102354.53;5082750;28;20020;-71
2022/04/03 06:57:19;;;;;;;9.38;6.47;;;;;;;3.31;79.63;102361.44;5100769;28;20030;-72
2022/04/03 06:59:44;;;;;;;11.73;5.90;;;;;;;3.14;80.49;102357.41;5065724;28;20115;-72
2022/04/03 07:02:10;;;;;;;9.57;6.57;;;;;;;3.25;80.07;102361.84;5082464;28;20141;-71
2022/04/03 07:04:36;;;;;;;8.70;5.95;;;;;;;3.94;78.71;102356.38;5082377;28;20027;-73
2022/04/03 07:07:03;;;;;;;9.73;5.50;;;;;;;9.05;62.15;102355.41;5081877;28;20106;-72
2022/04/03 07:09:28;;;;;;;7.95;4.90;;;;;;;13.72;48.28;102351.88;5099628;28;20024;-72
2022/04/03 07:11:53;;;;;;;6.85;4.30;;;;;;;14.82;42.68;102354.25;5081405;28;20435;-72
2022/04/03 07:14:18;;;;;;;9.30;4.05;;;;;;;14.11;42.60;102360.59;5081419;28;20073;-73
2022/04/03 07:16:44;;;;;;;5.50;3.70;;;;;;;12.47;45.65;102360.97;5099709;28;20034;-72
2022/04/03 07:19:10;;;;;;;5.47;3.78;;;;;;;11.35;52.55;102356.03;5099518;28;20467;-72
2022/04/03 07:21:36;;;;;;;4.80;3.65;;;;;;;15.27;41.58;102354.28;5099491;28;20479;-72
2022/04/03 07:24:01;;;;;;;6.35;3.35;;;;;;;15.78;38.70;102359.59;5099421;28;20034;-72
2022/04/03 07:26:26;;;;;;;6.53;3.30;;;;;;;15.81;37.51;102358.41;5081421;28;20387;-72
2022/04/03 07:28:51;;;;;;;4.75;3.30;;;;;;;16.27;36.95;102360.69;5099396;28;20407;-72
2022/04/03 07:31:17;;;;;;;5.45;2.90;;;;;;;16.33;37.42;102360.75;5081376;28;20031;-72
2022/04/03 07:33:42;;;;;;;5.82;2.80;;;;;;;17.02;36.28;102357.50;5099311;28;20016;-73
2022/04/03 07:36:07;;;;;;;5.30;2.70;;;;;;;16.44;36.17;102356.84;5099675;28;20038;-73
2022/04/03 07:38:33;;;;;;;5.32;2.65;;;;;;;15.93;38.65;102356.94;5081114;28;20028;-73
2022/04/03 07:40:58;;;;;;;5.82;2.70;;;;;;;15.70;37.70;102359.69;5099193;28;20054;-73
2022/04/03 07:43:25;;;;;;;4.30;2.58;;;;;;;16.72;36.82;102353.47;5080689;28;20208;-73
2022/04/03 07:45:50;;;;;;;5.97;2.60;;;;;;;16.53;36.99;102357.53;5080910;28;20019;-74
2022/04/03 07:48:19;;;;;;;5.22;2.45;;;;;;;14.99;38.72;102348.88;5099239;28;20106;-73
2022/04/03 07:50:45;;;;;;;4.30;2.00;;;;;;;11.70;47.95;102363.66;5099455;28;20059;-73
2022/04/03 07:53:10;;;;;;;5.25;2.30;;;;;;;12.12;48.83;102362.03;5099579;28;20360;-73
2022/04/03 07:55:35;;;;;;;3.53;2.00;;;;;;;12.50;45.57;102363.25;5081068;28;20471;-73
2022/04/03 07:58:01;;;;;;;2.90;1.88;;;;;;;13.44;43.20;102353.28;5081024;28;20028;-73
2022/04/03 08:00:26;;;;;;;4.82;1.70;;;;;;;15.53;37.38;102357.22;5081041;28;20470;-73
2022/04/03 08:02:51;;;;;;;4.57;1.75;;;;;;;15.51;37.43;102354.03;5096884;28;20024;-74
2022/04/03 08:05:17;;;;;;;4.05;1.60;;;;;;;15.89;37.79;102343.47;5095860;28;20055;-73
2022/04/03 08:07:44;;;;;;;2.80;1.45;;;;;;;16.59;35.24;102362.78;5096070;28;20024;-73
2022/04/03 08:10:12;;;;;;;2.70;1.38;;;;;;;15.49;36.17;102358.59;5095762;28;20024;-73
2022/04/03 08:12:39;;;;;;;3.72;1.70;;;;;;;17.13;35.01;102361.41;5095493;28;20498;-73
2022/04/03 08:15:06;;;;;;;5.10;1.90;;;;;;;16.30;34.99;102365.53;5095743;28;20027;-73
2022/04/03 08:17:32;;;;;;;3.10;1.70;;;;;;;16.77;34.36;102366.78;5077746;28;20028;-73
2022/04/03 08:19:57;;;;;;;4.72;1.65;;;;;;;17.42;32.81;102356.94;5095674;28;20020;-73
2022/04/03 08:22:23;;;;;;;3.53;1.55;;;;;;;13.93;40.66;102363.47;5095448;28;20024;-74
2022/04/03 08:24:49;;;;;;;4.03;1.80;;;;;;;13.89;42.42;102370.78;5077484;28;20049;-74
2022/04/03 08:27:15;;;;;;;6.95;1.83;;;;;;;13.19;45.91;102363.69;5095697;28;20489;-72
2022/04/03 08:29:40;;;;;;;3.95;1.40;;;;;;;11.96;44.99;102373.16;5095514;28;20024;-72
2022/04/03 08:32:06;;;;;;;3.35;1.80;;;;;;;10.49;49.02;102369.63;5077232;28;20043;-72
2022/04/03 08:34:31;;;;;;;4.45;2.30;;;;;;;10.04;49.69;102370.41;5095439;28;20475;-72
2022/04/03 08:36:57;;;;;;;5.55;2.10;;;;;;;9.85;51.32;102376.50;5095569;28;20459;-72
2022/04/03 08:39:23;;;;;;;5.78;2.38;;;;;;;15.14;40.51;102362.75;5077156;28;20023;-72
2022/04/03 08:41:48;;;;;;;4.88;1.75;;;;;;;13.71;43.40;102358.03;5095211;28;20038;-73
2022/04/03 08:44:13;;;;;;;4.57;2.20;;;;;;;12.27;48.04;102378.59;5076969;28;20028;-73
2022/04/03 08:46:40;;;;;;;4.18;2.00;;;;;;;15.06;42.25;102363.63;5095142;28;20032;-73
2022/04/03 08:49:07;;;;;;;4.00;1.70;;;;;;;14.99;41.50;102374.91;5095045;28;20493;-73
2022/04/03 08:51:36;;;;;;;4.75;1.90;;;;;;;11.72;46.57;102379.03;5076717;28;20056;-73
2022/04/03 08:54:02;;;;;;;5.70;1.75;;;;;;;10.29;50.91;102377.50;5094984;28;20446;-73
2022/04/03 08:56:28;;;;;;;3.67;1.50;;;;;;;9.48;52.74;102379.88;5095014;28;20020;-72
2022/04/03 08:58:53;;;;;;;4.70;1.77;;;;;;;9.39;53.60;102378.97;5094706;28;20020;-72
2022/04/03 09:01:18;;;;;;;9.88;1.70;;;;;;;9.27;53.65;102383.47;5094983;28;20099;-73
2022/04/03 09:03:44;;;;;;;3.78;1.65;;;;;;;8.67;56.47;102384.59;5094575;28;20134;-73
2022/04/03 09:06:14;;;;;;;3.58;1.70;;;;;;;8.91;56.90;102382.41;5093195;28;20031;-72
2022/04/03 09:08:40;;;;;;;5.90;2.05;;;;;;;8.75;55.94;102385.56;5074656;28;20554;-72
2022/04/03 09:11:07;;;;;;;6.93;2.13;;;;;;;8.98;54.95;102378.34;5074755;28;20061;-72
2022/04/03 09:13:32;;;;;;;5.47;1.90;;;;;;;9.03;56.08;102383.09;5093138;28;20012;-71
2022/04/03 09:15:58;;;;;;;4.53;1.83;;;;;;;8.39;58.86;102388.78;5094245;28;20390;-72
2022/04/03 09:18:41;;;;;;;5.57;1.90;;;;;;;8.17;60.21;102390.59;5094567;28;20474;-72
2022/04/03 09:21:15;;;;;;;3.40;1.67;;;;;;;8.29;58.52;102386.97;5079057;28;20027;-73
2022/04/03 09:24:10;;;;;;;3.33;1.55;;;;;;;7.91;61.88;102385.06;5076335;28;20020;-73
2022/04/03 09:26:39;;;;;;;3.22;1.50;;;;;;;7.60;62.71;102389.44;5094435;28;20024;-71
2022/04/03 09:29:15;;;;;;;3.85;1.50;;;;;;;7.58;64.71;102386.97;5075900;28;20024;-72
2022/04/03 09:31:42;;;;;;;3.58;1.60;;;;;;;7.72;65.08;102390.16;5076208;28;20036;-74
2022/04/03 09:34:17;;;;;;;4.72;1.75;;;;;;;7.65;64.51;102390.69;5076016;28;20031;-74
2022/04/03 09:36:43;;;;;;;3.55;1.77;;;;;;;7.73;64.14;102387.44;5094181;28;20042;-73
2022/04/03 09:39:09;;;;;;;5.03;2.03;;;;;;;7.74;62.48;102383.09;5094182;28;20024;-73
2022/04/03 09:42:03;;;;;;;6.43;2.30;;;;;;;8.13;63.00;102379.72;5076169;28;20034;-72
2022/04/03 09:44:32;;;;;;;4.90;2.60;;;;;;;8.55;60.99;102381.34;5094145;28;20027;-73
2022/04/03 09:47:20;;;;;;;6.22;2.50;;;;;;;8.53;60.64;102380.66;5094356;28;20027;-71
2022/04/03 09:49:51;;;;;;;5.18;2.75;;;;;;;9.21;60.53;102380.63;5093883;28;20053;-72
2022/04/03 09:52:46;;;;;;;4.28;2.08;;;;;;;9.04;59.93;102375.22;5092448;28;20124;-73
2022/04/03 09:55:22;;;;;;;4.80;1.63;;;;;;;8.82;60.05;102380.66;5075656;28;20031;-73
2022/04/03 09:58:05;;;;;;;4.20;1.45;;;;;;;9.47;58.90;102376.50;5075470;28;20430;-74
2022/04/03 10:00:32;;;;;;;2.42;1.23;;;;;;;9.53;57.76;102371.72;5075536;28;20054;-73
2022/04/03 10:03:05;;;;;;;3.40;1.30;;;;;;;9.03;59.40;102376.19;5091803;28;20221;-72
2022/04/03 10:05:33;;;;;;;3.38;1.55;;;;;;;9.67;59.05;102372.09;5091514;28;20039;-72
2022/04/03 10:08:00;;;;;;;1.85;1.20;;;;;;;10.72;56.97;102368.19;5073405;28;20107;-73
2022/04/03 10:10:27;;;;;;;2.28;1.38;;;;;;;10.24;56.34;102361.59;5093457;28;20039;-73
2022/04/03 10:12:54;;;;;;;3.40;1.58;;;;;;;10.07;55.57;102365.78;5092485;28;20016;-73
2022/04/03 10:15:19;;;;;;;1.60;1.23;;;;;;;10.18;58.30;102351.84;5093541;28;20032;-73
2022/04/03 10:17:45;;;;;;;2.67;1.15;;;;;;;10.32;56.33;102355.72;5093441;28;20487;-73
2022/04/03 10:20:11;;;;;;;2.47;1.50;;;;;;;11.17;54.42;102346.56;5093426;28;20024;-73
2022/04/03 10:22:39;;;;;;;2.13;1.23;;;;;;;11.02;53.54;102354.06;5093348;28;20016;-73
2022/04/03 10:25:11;;;;;;;5.57;1.35;;;;;;;10.69;53.59;102352.19;5092663;28;20031;-72
2022/04/03 10:27:39;;;;;;;4.13;1.20;;;;;;;10.32;57.20;102341.03;5074410;28;20024;-73
2022/04/03 10:30:06;;;;;;;1.65;0.95;;;;;;;11.12;54.27;102347.97;5093215;28;20024;-74
2022/04/03 10:32:34;;;;;;;1.35;0.85;;;;;;;11.00;53.27;102342.25;5093242;28;20111;-73
2022/04/03 10:35:11;;;;;;;3.08;1.23;;;;;;;11.16;51.84;102333.75;5093365;28;20024;-73
2022/04/03 10:37:42;;;;;;;3.30;1.20;;;;;;;11.39;52.31;102341.81;5075070;28;20028;-73
2022/04/03 10:40:29;;;;;;;2.75;1.35;;;;;;;12.11;50.46;102335.34;5093171;28;20094;-72
2022/04/03 10:42:58;;;;;;;2.15;1.10;;;;;;;12.86;49.91;102330.00;5093247;28;20356;-72
2022/04/03 10:45:29;;;;;;;4.95;1.40;;;;;;;13.20;49.03;102334.16;5093148;28;20028;-73
2022/04/03 10:48:20;;;;;;;5.93;1.42;;;;;;;11.14;53.30;102327.94;5075470;28;20035;-73
2022/04/03 10:50:59;;;;;;;1.75;0.82;;;;;;;10.78;52.11;102326.22;5074805;28;20024;-72
2022/04/03 10:53:26;;;;;;;2.67;1.02;;;;;;;10.65;51.54;102320.66;5074960;28;20054;-74
2022/04/03 10:55:55;;;;;;;2.20;1.05;;;;;;;11.27;51.59;102321.38;5092980;28;20150;-73
2022/04/03 10:58:21;;;;;;;10.55;3.03;;;;;;;11.64;50.32;102320.25;5092964;28;20035;-73
2022/04/03 11:00:48;;;;;;;4.50;1.00;;;;;;;11.85;48.81;102319.00;5093060;28;20055;-73
2022/04/03 11:03:13;;;;;;;1.85;0.95;;;;;;;12.01;48.97;102305.34;5074805;28;20028;-74
2022/04/03 11:05:39;;;;;;;6.40;1.83;;;;;;;10.97;51.16;102290.81;5075019;28;20023;-73
2022/04/03 11:08:04;;;;;;;10.13;2.50;;;;;;;11.75;50.59;102307.00;5075172;28;20278;-72
2022/04/03 11:10:56;;;;;;;7.45;2.53;;;;;;;12.30;48.09;102307.47;5074597;28;20025;-73
2022/04/03 11:13:34;;;;;;;2.25;0.98;;;;;;;11.90;48.51;102298.66;5093482;28;20025;-73
2022/04/03 11:16:10;;;;;;;6.30;1.90;;;;;;;11.06;50.54;102308.00;5093853;28;20122;-70
2022/04/03 11:18:43;;;;;;;3.53;1.55;;;;;;;10.45;53.44;102298.50;5093704;28;20020;-70
2022/04/03 11:21:08;;;;;;;4.35;1.55;;;;;;;9.78;55.00;102298.81;5092726;28;20082;-68
2022/04/03 11:23:35;;;;;;;5.97;1.90;;;;;;;9.33;56.28;102306.47;5092472;28;20032;-70
2022/04/03 11:26:02;;;;;;;4.75;1.50;;;;;;;9.01;57.16;102297.34;5092559;28;20281;-69
2022/04/03 11:28:28;;;;;;;1.55;1.20;;;;;;;8.75;57.45;102299.69;5074576;28;20067;-69